createdAt,value
2023-01-30T00:01:18.492Z,99864.3
2023-01-30T00:06:54.121Z,99853.9
2023-01-30T00:12:44.437Z,99856.6
2023-01-30T00:18:28.250Z,99858.7
2023-01-30T00:24:07.963Z,99852.1
2023-01-30T00:30:03.974Z,99850.6
2023-01-30T00:35:39.986Z,99847.2
2023-01-30T00:41:38.755Z,99842.1
2023-01-30T00:47:22.521Z,99846.1
2023-01-30T00:52:59.679Z,99847.9
2023-01-30T00:58:40.714Z,99849
2023-01-30T01:04:24.553Z,99846.4
2023-01-30T01:11:02.199Z,99847.6
2023-01-30T01:16:39.159Z,99844.4
2023-01-30T01:22:15.373Z,99849.5
2023-01-30T01:27:54.000Z,99860.2
2023-01-30T01:33:43.929Z,99867.4
2023-01-30T01:39:30.025Z,99870.5
2023-01-30T01:45:16.600Z,99880.9
2023-01-30T01:50:56.093Z,99897.4
2023-01-30T01:56:34.256Z,99906.9
2023-01-30T02:02:17.857Z,99907.6
2023-01-30T02:07:53.899Z,99909.1
2023-01-30T02:13:29.268Z,99915.3
2023-01-30T02:19:24.984Z,99928.8
2023-01-30T02:25:21.675Z,99936.9
2023-01-30T02:31:00.913Z,99935.8
2023-01-30T02:36:40.907Z,99927.2
2023-01-30T02:42:16.126Z,99917.8
2023-01-30T02:47:58.342Z,99905.7
2023-01-30T02:53:54.370Z,99894.5
2023-01-30T02:59:29.081Z,99880.1
2023-01-30T03:05:12.196Z,99862.2
2023-01-30T03:10:47.611Z,99850.1
2023-01-30T03:16:33.994Z,99835.5
2023-01-30T03:22:12.447Z,99833
2023-01-30T03:27:50.667Z,99828.9
2023-01-30T03:33:25.557Z,99823.7
2023-01-30T03:39:00.729Z,99829.1
2023-01-30T03:44:44.315Z,99831
2023-01-30T03:50:19.487Z,99830.1
2023-01-30T03:56:07.633Z,99843.4
2023-01-30T04:01:44.269Z,99855
2023-01-30T04:08:14.605Z,99861.8
2023-01-30T04:13:59.637Z,99866
2023-01-30T04:20:03.519Z,99880.2
2023-01-30T04:25:53.271Z,99903.7
2023-01-30T04:31:31.956Z,99919.4
2023-01-30T04:37:09.262Z,99933.5
2023-01-30T04:42:59.164Z,99956.7
2023-01-30T04:48:36.534Z,99975.5
2023-01-30T04:54:54.047Z,99977.6
2023-01-30T05:00:29.211Z,99958.1
2023-01-30T05:06:14.382Z,99962.6
2023-01-30T05:11:55.039Z,99968.5
2023-01-30T05:17:30.397Z,99973.6
2023-01-30T05:23:05.953Z,99955.1
2023-01-30T05:29:08.922Z,99939.4
2023-01-30T05:35:03.431Z,99950.1
2023-01-30T05:40:38.372Z,99944.3
2023-01-30T05:46:18.147Z,99933.9
2023-01-30T05:52:01.244Z,99929.8
2023-01-30T05:57:37.319Z,99930.2
2023-01-30T06:03:16.894Z,99932.5
2023-01-30T06:09:02.334Z,99911.1
2023-01-30T06:14:37.063Z,99910.5
2023-01-30T06:20:19.643Z,99891.2
2023-01-30T06:25:55.403Z,99898.7
2023-01-30T06:31:52.009Z,99890.6
2023-01-30T06:37:48.405Z,99878.2
2023-01-30T06:43:25.139Z,99890.3
2023-01-30T06:49:00.154Z,99883.7
2023-01-30T06:55:06.779Z,99880.4
2023-01-30T07:00:58.183Z,99860
2023-01-30T07:07:07.761Z,99863.1
2023-01-30T07:12:43.397Z,99868.2
2023-01-30T07:18:18.824Z,99870.8
2023-01-30T07:23:55.523Z,99870.6
2023-01-30T07:29:30.717Z,99887
2023-01-30T07:35:11.375Z,99911.7
2023-01-30T07:40:46.836Z,99902.8
2023-01-30T07:46:22.686Z,99905.6
2023-01-30T07:51:58.105Z,99922.9
2023-01-30T07:57:44.928Z,99936.7
2023-01-30T08:03:20.727Z,99946.7
2023-01-30T08:09:16.519Z,99954
2023-01-30T08:14:52.697Z,99965.8
2023-01-30T08:20:30.654Z,99986.3
2023-01-30T08:26:05.815Z,99991.9
2023-01-30T08:31:40.814Z,99993.3
2023-01-30T08:37:18.092Z,100015.9
2023-01-30T08:42:59.384Z,100034.3
2023-01-30T08:48:50.830Z,100040.5
2023-01-30T08:54:26.221Z,100054.4
2023-01-30T09:00:02.693Z,100067.2
2023-01-30T09:05:39.086Z,100071.5
2023-01-30T09:11:14.559Z,100081.5
2023-01-30T09:16:51.152Z,100089.7
2023-01-30T09:22:26.879Z,100092.1
2023-01-30T09:28:02.414Z,100089.7
2023-01-30T09:33:37.830Z,100090.2
2023-01-30T09:39:13.112Z,100083.6
2023-01-30T09:44:49.527Z,100096.5
2023-01-30T09:50:26.798Z,100091.2
2023-01-30T09:56:04.723Z,100091.4
2023-01-30T10:01:39.931Z,100067.7
2023-01-30T10:07:15.038Z,100055.3
2023-01-30T10:13:05.989Z,100067.4
2023-01-30T10:18:45.612Z,100079.7
2023-01-30T10:24:22.328Z,100085.6
2023-01-30T10:30:06.608Z,100094.7
2023-01-30T10:36:03.154Z,100095.3
2023-01-30T10:41:39.357Z,100097.1
2023-01-30T10:47:48.531Z,100100.5
2023-01-30T10:53:23.088Z,100103.9
2023-01-30T10:59:20.152Z,100117.6
2023-01-30T11:04:56.420Z,100110.1
2023-01-30T11:10:32.573Z,100108.1
2023-01-30T11:16:08.653Z,100105.2
2023-01-30T11:21:45.448Z,100092.7
2023-01-30T11:27:20.781Z,100078.4
2023-01-30T11:32:58.200Z,100075.3
2023-01-30T11:38:35.538Z,100074.6
2023-01-30T11:44:11.488Z,100070.8
2023-01-30T11:50:19.892Z,100067.1
2023-01-30T11:56:24.299Z,100044.2
2023-01-30T12:02:01.260Z,100040.3
2023-01-30T12:07:37.870Z,100031.9
2023-01-30T12:13:14.533Z,100034
2023-01-30T12:18:49.722Z,100030
2023-01-30T12:24:35.284Z,100035
2023-01-30T12:30:15.544Z,100035.1
2023-01-30T12:35:52.763Z,100030.2
2023-01-30T12:41:27.969Z,100025.7
2023-01-30T12:47:03.224Z,100019.3
2023-01-30T12:52:38.560Z,100014.2
2023-01-30T12:58:19.990Z,100015.2
2023-01-30T13:03:55.269Z,100006
2023-01-30T13:09:30.680Z,100005
2023-01-30T13:15:15.582Z,100002.1
2023-01-30T13:20:51.190Z,99985.5
2023-01-30T13:26:26.419Z,99988.5
2023-01-30T13:32:03.077Z,99992.3
2023-01-30T13:37:59.004Z,99986.8
2023-01-30T13:43:35.196Z,99971.2
2023-01-30T13:49:14.507Z,99954.3
2023-01-30T13:54:51.048Z,99956.8
2023-01-30T14:00:31.500Z,99958.7
2023-01-30T14:06:09.863Z,99951.3
2023-01-30T14:11:50.338Z,99936.1
2023-01-30T14:17:25.723Z,99936.4
2023-01-30T14:23:01.179Z,99939.1
2023-01-30T14:28:37.601Z,99945
2023-01-30T14:34:13.170Z,99936.5
2023-01-30T14:39:59.210Z,99938.6
2023-01-30T14:45:36.034Z,99932.6
2023-01-30T14:51:19.941Z,99927.2
2023-01-30T14:56:55.593Z,99929.5
2023-01-30T15:02:31.126Z,99932.5
2023-01-30T15:08:25.274Z,99923.3
2023-01-30T15:14:00.586Z,99922.8
2023-01-30T15:19:37.045Z,99919.1
2023-01-30T15:25:12.844Z,99923.3
2023-01-30T15:30:48.683Z,99919.1
2023-01-30T15:36:25.875Z,99931.2
2023-01-30T15:42:02.641Z,99939.5
2023-01-30T15:47:41.226Z,99940
2023-01-30T15:53:18.308Z,99943.2
2023-01-30T15:58:53.571Z,99950.6
2023-01-30T16:04:29.471Z,99955
2023-01-30T16:10:08.932Z,99954.1
2023-01-30T16:15:45.229Z,99948.1
2023-01-30T16:21:21.551Z,99953.6
2023-01-30T16:27:01.522Z,99966
2023-01-30T16:32:36.959Z,99960.5
2023-01-30T16:38:12.237Z,99970
2023-01-30T16:43:46.960Z,99976.5
2023-01-30T16:49:44.554Z,99985.5
2023-01-30T16:55:18.521Z,99983.7
2023-01-30T17:00:53.929Z,99978.6
2023-01-30T17:06:30.974Z,99983.1
2023-01-30T17:12:25.694Z,99979.8
2023-01-30T17:18:04.648Z,99978.1
2023-01-30T17:23:46.821Z,99981.9
2023-01-30T17:29:50.262Z,99990.1
2023-01-30T17:35:46.182Z,100004.5
2023-01-30T17:41:32.245Z,100013.8
2023-01-30T17:47:10.363Z,100018.3
2023-01-30T17:52:55.755Z,100023.3
2023-01-30T17:58:31.237Z,100033.6
2023-01-30T18:04:10.573Z,100035.5
2023-01-30T18:10:06.110Z,100041.1
2023-01-30T18:15:41.406Z,100044.1
